createdAt,value
2022-10-17T00:00:03.765Z,1018.15
2022-10-17T00:01:03.861Z,1018.04
2022-10-17T00:02:03.744Z,1017.97
2022-10-17T00:03:03.752Z,1018.03
2022-10-17T00:04:03.713Z,1018.00
2022-10-17T00:05:03.712Z,1018.17
2022-10-17T00:06:03.705Z,1018.19
2022-10-17T00:07:03.712Z,1018.19
2022-10-17T00:08:03.698Z,1018.20
2022-10-17T00:09:03.678Z,1018.23
2022-10-17T00:10:03.646Z,1018.22
2022-10-17T00:11:11.394Z,1018.18
2022-10-17T00:12:13.733Z,1018.25
2022-10-17T00:13:11.299Z,1018.22
2022-10-17T00:14:11.263Z,1018.17
2022-10-17T00:16:14.072Z,1018.22
2022-10-17T00:17:14.065Z,1018.20
2022-10-17T00:18:13.989Z,1018.21
2022-10-17T00:19:14.083Z,1018.17
2022-10-17T00:20:13.939Z,1018.15
2022-10-17T00:21:13.910Z,1018.13
2022-10-17T00:22:13.899Z,1018.08
2022-10-17T00:23:13.900Z,1018.04
2022-10-17T00:24:13.880Z,1018.09
2022-10-17T00:25:13.891Z,1018.06
2022-10-17T00:26:13.850Z,1018.13
2022-10-17T00:27:13.835Z,1018.10
2022-10-17T00:28:13.844Z,1018.09
2022-10-17T00:29:13.818Z,1018.10
2022-10-17T00:30:13.820Z,1018.16
2022-10-17T00:31:13.798Z,1018.13
2022-10-17T00:32:13.779Z,1018.14
2022-10-17T00:33:13.806Z,1018.12
2022-10-17T00:34:13.752Z,1018.07
2022-10-17T00:35:13.763Z,1018.05
2022-10-17T00:36:13.765Z,1018.14
2022-10-17T00:37:13.724Z,1018.14
2022-10-17T00:38:13.716Z,1018.16
2022-10-17T00:39:13.716Z,1018.21
2022-10-17T00:40:13.695Z,1018.22
2022-10-17T00:41:23.730Z,1018.31
2022-10-17T00:42:21.360Z,1018.20
2022-10-17T00:43:21.372Z,1018.25
2022-10-17T00:44:13.718Z,1018.27
2022-10-17T00:45:13.715Z,1018.24
2022-10-17T00:46:13.665Z,1018.17
2022-10-17T00:47:13.749Z,1018.23
2022-10-17T00:48:13.604Z,1018.26
2022-10-17T00:49:13.611Z,1018.20
2022-10-17T00:50:13.585Z,1018.19
2022-10-17T00:51:13.616Z,1018.08
2022-10-17T00:52:13.562Z,1018.07
2022-10-17T00:53:13.551Z,1018.03
2022-10-17T00:54:13.560Z,1018.04
2022-10-17T00:55:13.531Z,1017.94
2022-10-17T00:56:13.529Z,1017.99
2022-10-17T00:57:13.519Z,1018.00
2022-10-17T00:58:13.508Z,1018.02
2022-10-17T00:59:13.557Z,1018.03
2022-10-17T01:00:13.481Z,1018.03
2022-10-17T01:01:13.533Z,1018.12
2022-10-17T01:02:13.464Z,1018.17
2022-10-17T01:03:13.433Z,1018.17
2022-10-17T01:04:13.433Z,1018.09
2022-10-17T01:05:13.445Z,1018.10
2022-10-17T01:06:13.405Z,1018.10
2022-10-17T01:07:13.403Z,1018.10
2022-10-17T01:08:13.389Z,1018.14
2022-10-17T01:09:13.393Z,1018.02
2022-10-17T01:10:13.451Z,1018.05
2022-10-17T01:11:13.355Z,1018.04
2022-10-17T01:12:13.344Z,1017.98
2022-10-17T01:13:13.372Z,1018.03
2022-10-17T01:14:13.323Z,1018.03
2022-10-17T01:15:13.305Z,1018.05
2022-10-17T01:16:13.301Z,1017.99
2022-10-17T01:17:13.291Z,1017.98
2022-10-17T01:18:13.268Z,1017.94
2022-10-17T01:19:13.320Z,1017.91
2022-10-17T01:20:13.270Z,1017.98
2022-10-17T01:21:13.249Z,1017.93
2022-10-17T01:22:13.229Z,1017.87
2022-10-17T01:23:13.218Z,1017.88
2022-10-17T01:24:13.223Z,1017.91
2022-10-17T01:25:13.206Z,1017.95
2022-10-17T01:26:13.188Z,1017.98
2022-10-17T01:27:13.171Z,1018.00
2022-10-17T01:28:13.163Z,1018.03
2022-10-17T01:29:13.165Z,1017.99
2022-10-17T01:30:13.133Z,1018.01
2022-10-17T01:31:13.136Z,1017.99
2022-10-17T01:32:13.157Z,1017.98
2022-10-17T01:33:13.108Z,1017.94
2022-10-17T01:34:13.103Z,1017.94
2022-10-17T01:35:13.090Z,1017.90
2022-10-17T01:36:13.074Z,1017.93
2022-10-17T01:37:13.078Z,1017.87
2022-10-17T01:38:13.051Z,1017.91
2022-10-17T01:39:13.040Z,1017.90
2022-10-17T01:40:13.047Z,1017.89
2022-10-17T01:41:13.017Z,1017.89
2022-10-17T01:42:13.012Z,1017.90
2022-10-17T01:43:12.995Z,1017.91
2022-10-17T01:44:12.993Z,1017.84
2022-10-17T01:45:13.021Z,1017.83
2022-10-17T01:46:13.000Z,1017.85
2022-10-17T01:47:12.955Z,1017.79
2022-10-17T01:48:12.939Z,1017.83
2022-10-17T01:49:12.936Z,1017.86
2022-10-17T01:50:12.921Z,1017.82
2022-10-17T01:51:12.926Z,1017.82
2022-10-17T01:52:12.938Z,1017.83
2022-10-17T01:53:23.795Z,1017.77
2022-10-17T01:54:12.905Z,1017.80
2022-10-17T01:55:12.917Z,1017.78
2022-10-17T01:56:12.991Z,1017.78
2022-10-17T01:57:12.860Z,1017.79
2022-10-17T01:58:12.866Z,1017.79
2022-10-17T01:59:12.819Z,1017.76
2022-10-17T02:00:12.862Z,1017.77
2022-10-17T02:01:12.945Z,1017.78
2022-10-17T02:02:12.793Z,1017.77
2022-10-17T02:03:12.852Z,1017.80
2022-10-17T02:04:12.787Z,1017.71
2022-10-17T02:05:12.757Z,1017.78
2022-10-17T02:06:12.750Z,1017.81
2022-10-17T02:07:12.745Z,1017.74
2022-10-17T02:08:12.741Z,1017.86
2022-10-17T02:09:12.748Z,1017.83
2022-10-17T02:10:12.718Z,1017.82
2022-10-17T02:11:12.715Z,1017.78
2022-10-17T02:12:12.692Z,1017.86
2022-10-17T02:13:12.680Z,1017.83
2022-10-17T02:15:12.666Z,1017.87
2022-10-17T02:16:12.673Z,1017.88
2022-10-17T02:17:12.627Z,1017.80
2022-10-17T02:18:12.641Z,1017.78
2022-10-17T02:19:12.607Z,1017.74
2022-10-17T02:20:12.605Z,1017.76
2022-10-17T02:21:12.595Z,1017.68
2022-10-17T02:22:12.610Z,1017.75
2022-10-17T02:23:12.598Z,1017.74
2022-10-17T02:24:12.558Z,1017.72
2022-10-17T02:25:12.551Z,1017.65
2022-10-17T02:26:12.531Z,1017.66
2022-10-17T02:27:12.543Z,1017.68
2022-10-17T02:28:12.566Z,1017.62
2022-10-17T02:29:12.500Z,1017.67
2022-10-17T02:30:12.483Z,1017.72
2022-10-17T02:31:12.481Z,1017.72
2022-10-17T02:32:12.544Z,1017.67
2022-10-17T02:33:12.455Z,1017.70
2022-10-17T02:34:12.453Z,1017.65
2022-10-17T02:35:12.481Z,1017.63
2022-10-17T02:36:12.418Z,1017.57
2022-10-17T02:37:12.405Z,1017.61
2022-10-17T02:38:12.421Z,1017.60
2022-10-17T02:39:12.389Z,1017.57
2022-10-17T02:40:12.382Z,1017.60
2022-10-17T02:41:12.389Z,1017.57
2022-10-17T02:42:12.391Z,1017.61
2022-10-17T02:43:12.346Z,1017.58
2022-10-17T02:44:12.330Z,1017.55
2022-10-17T02:45:12.318Z,1017.60
2022-10-17T02:46:12.311Z,1017.64
2022-10-17T02:47:12.302Z,1017.58
2022-10-17T02:48:12.325Z,1017.66
2022-10-17T02:49:12.272Z,1017.65
2022-10-17T02:50:12.279Z,1017.70
2022-10-17T02:51:12.266Z,1017.73
2022-10-17T02:52:12.269Z,1017.69
2022-10-17T02:53:12.253Z,1017.69
2022-10-17T02:54:12.254Z,1017.66
2022-10-17T02:55:12.217Z,1017.68
2022-10-17T02:56:12.203Z,1017.65
2022-10-17T02:57:12.236Z,1017.62
2022-10-17T02:58:12.184Z,1017.62
2022-10-17T02:59:22.332Z,1017.61
2022-10-17T03:00:22.318Z,1017.60
2022-10-17T03:01:20.923Z,1017.58
2022-10-17T03:02:20.828Z,1017.61
2022-10-17T03:03:12.237Z,1017.56
2022-10-17T03:04:12.207Z,1017.57
2022-10-17T03:05:12.147Z,1017.45
2022-10-17T03:06:12.118Z,1017.49
2022-10-17T03:07:12.081Z,1017.44
2022-10-17T03:08:12.079Z,1017.41
2022-10-17T03:09:12.087Z,1017.34
2022-10-17T03:10:12.065Z,1017.39
2022-10-17T03:11:12.054Z,1017.39
2022-10-17T03:12:12.072Z,1017.42
2022-10-17T03:13:12.038Z,1017.40
2022-10-17T03:14:12.003Z,1017.37
2022-10-17T03:15:12.027Z,1017.33
2022-10-17T03:16:11.983Z,1017.39
2022-10-17T03:17:11.969Z,1017.40
2022-10-17T03:18:12.006Z,1017.49
2022-10-17T03:19:11.971Z,1017.53
2022-10-17T03:20:11.929Z,1017.48
2022-10-17T03:21:11.943Z,1017.52
2022-10-17T03:22:11.968Z,1017.51
2022-10-17T03:23:11.904Z,1017.58
2022-10-17T03:24:11.900Z,1017.60
2022-10-17T03:25:11.889Z,1017.59
2022-10-17T03:26:11.899Z,1017.53
2022-10-17T03:27:11.867Z,1017.46
2022-10-17T03:28:11.879Z,1017.48
2022-10-17T03:29:11.891Z,1017.45
2022-10-17T03:30:11.839Z,1017.46
2022-10-17T03:31:21.895Z,1017.46
2022-10-17T03:32:11.929Z,1017.47
2022-10-17T03:33:11.909Z,1017.43
2022-10-17T03:34:11.865Z,1017.43
2022-10-17T03:35:14.853Z,1017.40
2022-10-17T03:36:11.773Z,1017.33
2022-10-17T03:37:11.767Z,1017.36
2022-10-17T03:38:11.742Z,1017.37
2022-10-17T03:39:11.772Z,1017.36
2022-10-17T03:40:11.728Z,1017.39
2022-10-17T03:41:11.713Z,1017.41
2022-10-17T03:42:11.702Z,1017.45
2022-10-17T03:43:11.683Z,1017.42
2022-10-17T03:44:11.683Z,1017.37
2022-10-17T03:45:11.689Z,1017.46
2022-10-17T03:46:11.684Z,1017.42
2022-10-17T03:47:14.079Z,1017.38
2022-10-17T03:48:11.649Z,1017.44
2022-10-17T03:49:11.640Z,1017.42
2022-10-17T03:50:11.617Z,1017.39
2022-10-17T03:51:11.638Z,1017.41
2022-10-17T03:52:11.597Z,1017.37
2022-10-17T03:53:11.591Z,1017.43
2022-10-17T03:54:11.584Z,1017.36
2022-10-17T03:55:11.568Z,1017.39
2022-10-17T03:56:11.569Z,1017.40
2022-10-17T03:57:11.549Z,1017.39
2022-10-17T03:58:11.561Z,1017.41
2022-10-17T03:59:11.544Z,1017.40
2022-10-17T04:00:11.512Z,1017.39
2022-10-17T04:01:11.604Z,1017.42
2022-10-17T04:02:11.530Z,1017.40
2022-10-17T04:03:16.379Z,1017.40
2022-10-17T04:04:12.483Z,1017.42
2022-10-17T04:05:11.460Z,1017.40
2022-10-17T04:06:11.451Z,1017.41
2022-10-17T04:07:11.428Z,1017.38
2022-10-17T04:08:11.446Z,1017.36
2022-10-17T04:09:11.455Z,1017.35
2022-10-17T04:10:11.420Z,1017.34
2022-10-17T04:11:11.389Z,1017.32
2022-10-17T04:12:11.387Z,1017.33
2022-10-17T04:13:11.366Z,1017.31
2022-10-17T04:14:11.386Z,1017.35
2022-10-17T04:15:11.386Z,1017.32
2022-10-17T04:16:11.337Z,1017.29
2022-10-17T04:17:11.353Z,1017.26
2022-10-17T04:18:11.380Z,1017.28
2022-10-17T04:19:11.326Z,1017.27
2022-10-17T04:20:11.313Z,1017.28
2022-10-17T04:21:11.287Z,1017.27
2022-10-17T04:22:11.285Z,1017.26
2022-10-17T04:23:11.260Z,1017.22
2022-10-17T04:24:11.273Z,1017.22
2022-10-17T04:25:11.272Z,1017.24
2022-10-17T04:26:11.230Z,1017.27
2022-10-17T04:27:11.212Z,1017.34
2022-10-17T04:28:11.211Z,1017.24
2022-10-17T04:29:11.208Z,1017.19
2022-10-17T04:30:11.190Z,1017.31
2022-10-17T04:31:11.187Z,1017.30
2022-10-17T04:32:11.162Z,1017.25
2022-10-17T04:33:11.174Z,1017.20
2022-10-17T04:34:11.141Z,1017.29
2022-10-17T04:35:11.157Z,1017.23
2022-10-17T04:36:11.123Z,1017.30
2022-10-17T04:37:11.112Z,1017.27
2022-10-17T04:38:11.102Z,1017.30
2022-10-17T04:39:11.205Z,1017.28
2022-10-17T04:40:11.094Z,1017.33
2022-10-17T04:41:11.107Z,1017.30
2022-10-17T04:42:11.052Z,1017.27
2022-10-17T04:43:11.040Z,1017.26
2022-10-17T04:44:11.020Z,1017.23
2022-10-17T04:45:11.020Z,1017.22
2022-10-17T04:46:11.011Z,1017.18
2022-10-17T04:47:11.017Z,1017.24
2022-10-17T04:48:10.978Z,1017.25
2022-10-17T04:49:10.989Z,1017.19
2022-10-17T04:50:10.956Z,1017.21
2022-10-17T04:51:11.052Z,1017.15
2022-10-17T04:52:10.951Z,1017.23
2022-10-17T04:53:10.929Z,1017.30
2022-10-17T04:54:10.929Z,1017.25
2022-10-17T04:55:10.910Z,1017.18
2022-10-17T04:56:10.922Z,1017.26
2022-10-17T04:57:10.901Z,1017.24
2022-10-17T04:58:10.882Z,1017.22
2022-10-17T04:59:10.878Z,1017.22
2022-10-17T05:00:10.867Z,1017.25
2022-10-17T05:01:10.969Z,1017.23
2022-10-17T05:02:10.834Z,1017.23
2022-10-17T05:03:10.845Z,1017.28
2022-10-17T05:04:10.838Z,1017.30
2022-10-17T05:05:10.817Z,1017.27
2022-10-17T05:06:10.864Z,1017.26
2022-10-17T05:07:10.774Z,1017.24
2022-10-17T05:08:10.796Z,1017.24
2022-10-17T05:09:10.758Z,1017.23
2022-10-17T05:10:10.763Z,1017.25
2022-10-17T05:11:18.551Z,1017.21
2022-10-17T05:12:10.859Z,1017.23
2022-10-17T05:13:10.810Z,1017.14
2022-10-17T05:14:10.830Z,1017.11
2022-10-17T05:15:10.742Z,1017.14
2022-10-17T05:16:10.717Z,1017.15
2022-10-17T05:17:20.412Z,1017.17
2022-10-17T05:19:23.082Z,1017.15
2022-10-17T05:20:33.748Z,1017.21
2022-10-17T05:21:23.208Z,1017.16
2022-10-17T05:22:23.127Z,1017.19
2022-10-17T05:23:23.133Z,1017.21
2022-10-17T05:24:23.077Z,1017.15
2022-10-17T05:25:23.013Z,1017.15
2022-10-17T05:26:22.942Z,1017.24
2022-10-17T05:27:22.965Z,1017.24
2022-10-17T05:28:22.999Z,1017.14
2022-10-17T05:29:22.899Z,1017.20
2022-10-17T05:30:22.908Z,1017.22
2022-10-17T05:31:22.890Z,1017.20
2022-10-17T05:32:22.908Z,1017.28
2022-10-17T05:33:22.903Z,1017.31
2022-10-17T05:34:22.851Z,1017.29
2022-10-17T05:35:22.854Z,1017.29
2022-10-17T05:36:22.850Z,1017.25
2022-10-17T05:37:22.829Z,1017.35
2022-10-17T05:38:22.819Z,1017.33
2022-10-17T05:39:22.829Z,1017.26
2022-10-17T05:40:22.810Z,1017.32
2022-10-17T05:41:22.822Z,1017.32
2022-10-17T05:42:22.813Z,1017.30
2022-10-17T05:43:22.767Z,1017.35
2022-10-17T05:44:22.760Z,1017.34
2022-10-17T05:45:22.744Z,1017.36
2022-10-17T05:46:22.740Z,1017.39
2022-10-17T05:47:22.735Z,1017.38
2022-10-17T05:48:22.711Z,1017.36
2022-10-17T05:49:40.023Z,1017.42
2022-10-17T05:50:23.736Z,1017.41
2022-10-17T05:51:22.702Z,1017.38
2022-10-17T05:52:22.684Z,1017.42
2022-10-17T05:53:22.676Z,1017.45
2022-10-17T05:54:22.645Z,1017.51
2022-10-17T05:55:22.638Z,1017.38
2022-10-17T05:56:22.649Z,1017.45
2022-10-17T05:57:22.648Z,1017.32
2022-10-17T05:58:45.499Z,1017.35
2022-10-17T05:59:23.582Z,1017.42
2022-10-17T06:00:22.632Z,1017.41
2022-10-17T06:01:22.602Z,1017.41
2022-10-17T06:02:22.631Z,1017.51
2022-10-17T06:03:31.392Z,1017.48
2022-10-17T06:04:22.737Z,1017.48
2022-10-17T06:05:22.616Z,1017.51
2022-10-17T06:06:22.736Z,1017.50
2022-10-17T06:07:22.589Z,1017.50
2022-10-17T06:08:22.546Z,1017.51
2022-10-17T06:09:22.524Z,1017.55
2022-10-17T06:10:22.517Z,1017.55
2022-10-17T06:11:22.530Z,1017.50
2022-10-17T06:12:22.491Z,1017.60
2022-10-17T06:13:22.461Z,1017.64
2022-10-17T06:14:22.476Z,1017.68
2022-10-17T06:15:22.423Z,1017.65
2022-10-17T06:16:22.402Z,1017.61
2022-10-17T06:17:22.396Z,1017.66
2022-10-17T06:18:22.421Z,1017.66
2022-10-17T06:19:22.428Z,1017.67
2022-10-17T06:20:22.362Z,1017.64
2022-10-17T06:21:22.458Z,1017.68
2022-10-17T06:22:22.348Z,1017.67
2022-10-17T06:23:22.343Z,1017.76
2022-10-17T06:24:22.391Z,1017.70
2022-10-17T06:25:22.310Z,1017.79
2022-10-17T06:26:22.315Z,1017.74
2022-10-17T06:27:22.310Z,1017.71
2022-10-17T06:28:22.376Z,1017.72
2022-10-17T06:29:22.315Z,1017.72
2022-10-17T06:30:22.325Z,1017.76
2022-10-17T06:31:22.283Z,1017.73
2022-10-17T06:32:22.252Z,1017.73
2022-10-17T06:33:22.237Z,1017.71
2022-10-17T06:34:22.286Z,1017.75
2022-10-17T06:35:22.238Z,1017.71
2022-10-17T06:36:22.226Z,1017.72
2022-10-17T06:37:22.230Z,1017.70
2022-10-17T06:38:31.471Z,1017.68
2022-10-17T06:39:22.372Z,1017.73
2022-10-17T06:40:22.245Z,1017.65
2022-10-17T06:41:22.285Z,1017.67
2022-10-17T06:42:22.224Z,1017.71
2022-10-17T06:43:26.940Z,1017.74
2022-10-17T06:44:23.109Z,1017.75
2022-10-17T06:45:22.098Z,1017.82
2022-10-17T06:46:22.162Z,1017.73
2022-10-17T06:47:22.115Z,1017.75
2022-10-17T06:48:22.077Z,1017.73
2022-10-17T06:49:30.732Z,1017.78
2022-10-17T06:50:22.184Z,1017.78
2022-10-17T06:51:22.113Z,1017.78
2022-10-17T06:52:22.087Z,1017.80
2022-10-17T06:53:22.174Z,1017.77
2022-10-17T06:54:22.025Z,1017.79
2022-10-17T06:55:23.283Z,1017.78
2022-10-17T06:56:22.041Z,1017.80
2022-10-17T06:57:22.011Z,1017.74
2022-10-17T06:58:21.970Z,1017.84
2022-10-17T06:59:21.953Z,1017.82
2022-10-17T07:00:21.956Z,1017.83
2022-10-17T07:01:21.943Z,1017.84
2022-10-17T07:02:21.935Z,1017.88
2022-10-17T07:03:21.951Z,1017.93
2022-10-17T07:04:21.914Z,1017.94
2022-10-17T07:05:21.887Z,1017.99
2022-10-17T07:06:21.914Z,1018.02
2022-10-17T07:07:21.868Z,1018.03
2022-10-17T07:08:21.872Z,1018.01
2022-10-17T07:09:21.899Z,1018.00
2022-10-17T07:10:21.852Z,1018.00
2022-10-17T07:11:21.854Z,1018.02
2022-10-17T07:12:21.853Z,1018.04
2022-10-17T07:13:21.822Z,1018.06
2022-10-17T07:14:21.799Z,1018.04
2022-10-17T07:15:21.825Z,1018.02
2022-10-17T07:16:21.776Z,1018.00
2022-10-17T07:17:21.788Z,1018.03
2022-10-17T07:18:21.757Z,1018.02
2022-10-17T07:19:21.740Z,1018.00
2022-10-17T07:20:21.735Z,1018.06
2022-10-17T07:21:21.745Z,1018.07
2022-10-17T07:22:21.730Z,1018.04
2022-10-17T07:23:21.707Z,1018.05
2022-10-17T07:24:21.690Z,1018.08
2022-10-17T07:25:21.690Z,1018.10
2022-10-17T07:26:21.722Z,1018.10
2022-10-17T07:27:21.682Z,1018.14
2022-10-17T07:28:21.787Z,1018.11
2022-10-17T07:29:21.696Z,1018.18
2022-10-17T07:30:21.694Z,1018.16
2022-10-17T07:31:21.642Z,1018.15
2022-10-17T07:32:21.609Z,1018.08
2022-10-17T07:33:21.605Z,1018.17
2022-10-17T07:34:21.576Z,1018.18
2022-10-17T07:35:21.619Z,1018.15
2022-10-17T07:36:21.605Z,1018.20
2022-10-17T07:37:21.566Z,1018.18
2022-10-17T07:38:21.571Z,1018.14
2022-10-17T07:39:21.723Z,1018.14
2022-10-17T07:40:21.533Z,1018.19
2022-10-17T07:41:21.948Z,1018.14
2022-10-17T07:42:21.602Z,1018.16
2022-10-17T07:43:21.502Z,1018.12
2022-10-17T07:44:21.512Z,1018.14
2022-10-17T07:45:21.882Z,1018.17
2022-10-17T07:46:21.469Z,1018.14
2022-10-17T07:47:21.870Z,1018.15
2022-10-17T07:48:23.146Z,1018.18
2022-10-17T07:49:21.441Z,1018.20
2022-10-17T07:50:21.619Z,1018.18
2022-10-17T07:51:23.479Z,1018.12
2022-10-17T07:52:23.856Z,1018.12
2022-10-17T07:53:21.401Z,1018.17
2022-10-17T07:54:21.393Z,1018.14
2022-10-17T07:55:21.635Z,1018.13
2022-10-17T07:56:21.472Z,1018.17
2022-10-17T07:57:21.348Z,1018.18
2022-10-17T07:58:21.365Z,1018.18
2022-10-17T07:59:22.204Z,1018.18
2022-10-17T08:00:27.205Z,1018.18
2022-10-17T08:01:23.336Z,1018.13
2022-10-17T08:02:21.297Z,1018.16
2022-10-17T08:03:21.323Z,1018.16
2022-10-17T08:04:21.279Z,1018.19
2022-10-17T08:05:24.667Z,1018.18
2022-10-17T08:06:22.137Z,1018.12
2022-10-17T08:07:25.335Z,1018.18
2022-10-17T08:08:22.242Z,1018.16
2022-10-17T08:09:22.190Z,1018.15
2022-10-17T08:10:23.792Z,1018.21
2022-10-17T08:11:21.454Z,1018.22
2022-10-17T08:12:22.149Z,1018.23
2022-10-17T08:13:21.184Z,1018.16
2022-10-17T08:14:21.173Z,1018.23
2022-10-17T08:16:26.273Z,1018.10
2022-10-17T08:17:21.218Z,1018.18
2022-10-17T08:19:27.633Z,1018.18
2022-10-17T08:22:54.186Z,1018.13
2022-10-17T08:26:04.060Z,1018.13
2022-10-17T08:28:21.402Z,1018.11
2022-10-17T08:29:28.930Z,1018.10
2022-10-17T08:30:20.295Z,1018.14
2022-10-17T08:32:30.350Z,1018.11
2022-10-17T08:33:30.099Z,1018.10
2022-10-17T08:34:30.430Z,1018.13
2022-10-17T08:35:30.762Z,1018.09
2022-10-17T08:36:30.023Z,1018.17
2022-10-17T08:37:35.441Z,1018.05
2022-10-17T08:38:35.580Z,1018.13
2022-10-17T08:39:30.282Z,1018.08
2022-10-17T08:40:34.718Z,1018.08
2022-10-17T08:41:30.204Z,1018.03
2022-10-17T08:42:32.005Z,1018.03
2022-10-17T08:43:33.294Z,1018.09
2022-10-17T08:44:30.934Z,1018.09
2022-10-17T08:45:29.920Z,1018.09
2022-10-17T08:46:29.908Z,1018.09
2022-10-17T08:47:30.129Z,1018.13
2022-10-17T08:48:32.448Z,1018.08
2022-10-17T08:49:29.902Z,1018.04
2022-10-17T08:50:29.864Z,1018.14
2022-10-17T08:51:30.766Z,1018.10
2022-10-17T08:52:29.907Z,1018.15
2022-10-17T08:53:32.892Z,1018.14
2022-10-17T08:54:33.098Z,1018.17
2022-10-17T08:55:29.857Z,1018.18
2022-10-17T08:56:44.513Z,1018.10
2022-10-17T08:57:31.236Z,1018.20
2022-10-17T08:58:30.327Z,1018.10
2022-10-17T08:59:44.298Z,1018.15
2022-10-17T09:00:30.166Z,1018.22
2022-10-17T09:01:29.760Z,1018.21
2022-10-17T09:02:35.569Z,1018.20
2022-10-17T09:03:30.450Z,1018.21
2022-10-17T09:04:29.763Z,1018.22
2022-10-17T09:05:34.314Z,1018.19
2022-10-17T09:06:29.695Z,1018.23
2022-10-17T09:07:30.089Z,1018.27
2022-10-17T09:08:37.163Z,1018.30
2022-10-17T09:09:32.016Z,1018.21
2022-10-17T09:10:29.671Z,1018.26
2022-10-17T09:11:30.380Z,1018.25
2022-10-17T09:12:30.654Z,1018.25
2022-10-17T09:13:29.954Z,1018.13
2022-10-17T09:14:33.660Z,1018.17
2022-10-17T09:15:30.268Z,1018.12
2022-10-17T09:16:31.288Z,1018.17
2022-10-17T09:17:33.105Z,1018.13
2022-10-17T09:18:31.002Z,1018.12
2022-10-17T09:19:29.566Z,1018.05
2022-10-17T09:20:30.369Z,1018.06
2022-10-17T09:21:32.980Z,1018.04
2022-10-17T09:22:29.528Z,1018.05
2022-10-17T09:23:30.494Z,1018.06
2022-10-17T09:24:29.511Z,1018.05
2022-10-17T09:25:33.620Z,1018.01
2022-10-17T09:26:34.003Z,1018.01
2022-10-17T09:27:29.733Z,1018.03
2022-10-17T09:28:33.395Z,1018.03
2022-10-17T09:29:41.496Z,1018.06
2022-10-17T09:31:39.797Z,1018.05
2022-10-17T09:32:40.737Z,1017.96
2022-10-17T09:35:01.983Z,1018.01
2022-10-17T09:36:01.493Z,1017.98
2022-10-17T09:37:01.096Z,1018.00
2022-10-17T09:38:04.164Z,1017.98
2022-10-17T09:39:03.926Z,1017.93
2022-10-17T09:40:00.976Z,1017.93
2022-10-17T09:41:15.789Z,1017.90
2022-10-17T09:42:02.097Z,1017.92
2022-10-17T09:43:09.690Z,1017.92
2022-10-17T09:44:01.944Z,1017.89
2022-10-17T09:45:00.933Z,1017.95
2022-10-17T09:46:01.229Z,1018.01
2022-10-17T09:47:03.336Z,1018.03
2022-10-17T09:48:02.147Z,1018.02
2022-10-17T09:50:02.337Z,1018.06
2022-10-17T09:51:21.749Z,1018.02
2022-10-17T09:52:05.248Z,1018.07
2022-10-17T09:53:08.910Z,1018.09
